Impacts METAR Board INFO
IDs:

KDCA - Washington/National, VA, US

Updated at: 0739 UTC 11 Dec 2017
Potential Impact None Slight Moderate High
Time10/19Z 10/20Z 10/21Z 10/22Z 10/23Z 11/00Z 11/01Z 11/02Z 11/03Z 11/04Z 11/05Z 11/06Z 11/07Z
VIS10 10 10 10 10 10 10 10 10 10 10 10 10
CIG47 50 50 -- -- 250 110 100 100 110 80 60 80
CoverBKNBKNBKNSCTSCTBKNBKNOVCBKNOVCOVCOVCOVC
FltCatVFRVFRVFRVFRVFRVFRVFRVFRVFRVFRVFRVFRVFR
WX--------------------------
WDir270300240240230190190190190190210210160
WSpd8 7 6 6 5 5 10 7 7 7 6 7 5
WGst16 -- -- -- -- -- -- -- -- -- -- -- --
Raw hourly METARs
KDCA 101852Z 27008G16KT 10SM BKN047 04/M04 A3006 RMK AO2 SLP178 T00441044
KDCA 101952Z 30007KT 10SM BKN050 05/M04 A3005 RMK AO2 SLP176 T00501044
KDCA 102052Z 24006KT 10SM BKN050 BKN150 05/M06 A3004 RMK AO2 SLP173 T00501056 58006
KDCA 102152Z 24006KT 10SM FEW050 SCT150 04/M05 A3005 RMK AO2 SLP175 T00441050
KDCA 102252Z 23005KT 10SM FEW060 SCT150 04/M05 A3007 RMK AO2 SLP181 T00391050
KDCA 102352Z 19005KT 10SM FEW070 BKN250 03/M04 A3007 RMK AO2 SLP181 T00331044 10050 20033 51008
KDCA 110052Z 19010KT 10SM FEW080 BKN110 03/M03 A3008 RMK AO2 SLP184 T00281028
KDCA 110152Z 19007KT 10SM OVC100 03/M02 A3007 RMK AO2 SLP181 T00281022
KDCA 110252Z 19007KT 10SM BKN100 BKN250 03/M02 A3006 RMK AO2 SLP179 T00281017 58002
KDCA 110352Z 19007KT 10SM OVC110 03/M02 A3006 RMK AO2 SLP178 T00331022
KDCA 110452Z 21006KT 10SM BKN080 OVC095 03/M02 A3007 RMK AO2 SLP181 T00281022 400501011
KDCA 110552Z 21007KT 10SM BKN060 OVC075 03/M02 A3006 RMK AO2 SLP179 T00281022 10033 20028 58000
KDCA 110652Z 16005KT 10SM FEW060 OVC080 03/M02 A3004 RMK AO2 SLP170 T00331022